Time;durP1;ratioP1;P1;durP2;ratioP2;P2;SDS_P1;SDS_P2;PMS_P1;PMS_P2;Temp;Humidity;BMP_temperature;BMP_pressure;BME280_temperature;BME280_humidity;BME280_pressure;Samples;Min_cycle;Max_cycle;Signal;HPM_P1;HPM_P2
2022/11/28 02:09:57;;;;;;;26.87;15.80;;;;;;;2.37;80.75;95204.63;1781390;80;21104;-56
2022/11/28 02:13:09;;;;;;;30.02;17.65;;;;;;;2.39;81.03;95199.58;1769390;80;21141;-56
2022/11/28 02:16:13;;;;;;;31.97;17.10;;;;;;;2.47;80.88;95199.81;1757912;80;21003;-57
2022/11/28 02:19:10;;;;;;;18.80;13.28;;;;;;;2.51;80.79;95201.36;1762057;81;21029;-57
2022/11/28 02:22:08;;;;;;;17.65;11.93;;;;;;;2.53;80.55;95200.39;1741827;81;21054;-57
2022/11/28 02:25:12;;;;;;;18.12;11.38;;;;;;;2.50;80.66;95201.76;1779353;80;21469;-56
2022/11/28 02:28:18;;;;;;;18.48;12.28;;;;;;;2.49;80.53;95206.39;1773073;80;21249;-55
2022/11/28 02:31:14;;;;;;;23.32;15.10;;;;;;;2.50;80.84;95205.83;1786137;80;20950;-56
2022/11/28 02:33:47;;;;;;;27.42;15.80;;;;;;;2.60;80.86;95202.34;1730159;81;21516;-57
2022/11/28 02:36:31;;;;;;;26.57;15.70;;;;;;;2.66;80.49;95207.02;1753190;80;21089;-56
2022/11/28 02:39:17;;;;;;;25.43;15.63;;;;;;;2.67;80.37;95206.45;1765940;80;21010;-56
2022/11/28 02:41:59;;;;;;;26.02;17.98;;;;;;;2.69;80.21;95197.33;1769245;79;21129;-56
2022/11/28 02:44:40;;;;;;;27.40;17.87;;;;;;;2.71;80.21;95200.44;1764917;80;21543;-57
2022/11/28 02:47:18;;;;;;;24.10;15.60;;;;;;;2.77;80.34;95199.67;1731635;81;21067;-57
2022/11/28 02:49:55;;;;;;;36.25;21.50;;;;;;;2.86;80.09;95206.84;1658387;85;21096;-53
2022/11/28 02:52:27;;;;;;;26.10;15.88;;;;;;;2.95;79.84;95206.47;1652674;86;21162;-56
2022/11/28 02:54:54;;;;;;;23.45;15.20;;;;;;;3.13;79.65;95204.53;1650542;86;21266;-57
2022/11/28 02:57:20;;;;;;;27.85;17.77;;;;;;;3.27;79.14;95197.75;1653325;86;21130;-57
2022/11/28 02:59:49;;;;;;;24.52;15.63;;;;;;;3.38;78.57;95197.16;1652609;86;21092;-54
2022/11/28 03:02:27;;;;;;;23.45;16.30;;;;;;;3.43;77.99;95203.56;1651429;86;21640;-58
2022/11/28 03:05:15;;;;;;;26.85;16.55;;;;;;;3.38;77.80;95210.77;1650751;86;21751;-56
2022/11/28 03:07:57;;;;;;;28.95;17.25;;;;;;;3.39;77.59;95205.52;1627003;86;22094;-57
2022/11/28 03:10:34;;;;;;;32.38;16.42;;;;;;;3.40;77.82;95212.50;1625665;87;21121;-56
2022/11/28 03:13:32;;;;;;;22.17;13.13;;;;;;;3.45;77.60;95212.10;1603071;87;21156;-55
2022/11/28 03:16:20;;;;;;;22.25;13.25;;;;;;;3.48;77.69;95208.03;1587541;87;21125;-57
2022/11/28 03:19:29;;;;;;;20.30;12.30;;;;;;;3.59;77.37;95209.56;1583222;89;21131;-56
2022/11/28 03:22:10;;;;;;;17.17;11.50;;;;;;;3.60;77.07;95208.97;1603541;86;21548;-56
2022/11/28 03:24:43;;;;;;;22.27;13.05;;;;;;;3.52;77.27;95209.55;1605567;88;21097;-57
2022/11/28 03:27:15;;;;;;;19.90;14.00;;;;;;;3.55;76.96;95207.41;1587240;88;21666;-57
2022/11/28 03:29:46;;;;;;;22.95;15.78;;;;;;;3.54;76.80;95207.22;1536238;92;21665;-49
2022/11/28 03:32:22;;;;;;;31.68;19.42;;;;;;;3.52;76.90;95208.80;1516192;92;21127;-55
2022/11/28 03:34:53;;;;;;;36.00;20.77;;;;;;;3.51;77.10;95209.36;1484908;94;21274;-57
2022/11/28 03:37:31;;;;;;;36.83;20.35;;;;;;;3.59;77.30;95208.20;1489901;94;21253;-57
2022/11/28 03:40:01;;;;;;;31.15;18.42;;;;;;;3.67;77.21;95193.41;1455568;98;21558;-57
2022/11/28 03:42:30;;;;;;;35.20;22.48;;;;;;;3.76;76.88;95205.25;1453932;97;21102;-57
2022/11/28 03:45:14;;;;;;;27.48;17.17;;;;;;;3.77;76.76;95206.80;1458587;96;21619;-57
2022/11/28 03:47:46;;;;;;;27.00;15.55;;;;;;;3.78;76.72;95202.91;1428722;99;21235;-56
2022/11/28 03:50:23;;;;;;;28.12;17.95;;;;;;;3.83;77.01;95202.52;1425759;99;21087;-55
2022/11/28 03:52:54;;;;;;;35.13;22.80;;;;;;;3.92;76.58;95196.86;1363736;104;21697;-57
2022/11/28 03:55:26;;;;;;;32.42;21.93;;;;;;;3.94;76.00;95200.53;1315743;108;21190;-56
2022/11/28 03:58:10;;;;;;;30.50;20.97;;;;;;;3.87;75.67;95196.48;1320699;107;21642;-56
2022/11/28 04:01:02;;;;;;;26.00;15.18;;;;;;;3.74;75.83;95202.94;1294947;110;21224;-56
2022/11/28 04:03:50;;;;;;;25.52;16.30;;;;;;;3.68;75.94;95203.12;1305538;108;21215;-56
2022/11/28 04:06:26;;;;;;;24.82;17.17;;;;;;;3.64;76.17;95198.84;1336330;106;21190;-57
2022/11/28 04:09:04;;;;;;;28.40;18.17;;;;;;;3.62;76.67;95199.83;1329691;106;21187;-57
2022/11/28 04:11:39;;;;;;;25.15;16.77;;;;;;;3.74;76.89;95206.22;1329763;106;21709;-55
2022/11/28 04:14:29;;;;;;;26.45;17.52;;;;;;;3.82;76.32;95204.45;1334734;107;21340;-58
2022/11/28 04:17:16;;;;;;;25.08;16.30;;;;;;;3.88;76.27;95199.39;1324322;106;21624;-57
2022/11/28 04:19:53;;;;;;;28.73;18.02;;;;;;;3.92;75.91;95196.86;1311032;107;21109;-57
2022/11/28 04:22:39;;;;;;;27.13;16.97;;;;;;;3.91;76.08;95199.36;1318161;107;21179;-56
2022/11/28 04:25:10;;;;;;;37.90;21.25;;;;;;;3.96;76.02;95200.34;1342861;104;21116;-56
2022/11/28 04:27:41;;;;;;;39.73;24.72;;;;;;;3.91;75.81;95189.84;1333468;106;21339;-54
2022/11/28 04:30:10;;;;;;;41.50;25.90;;;;;;;3.93;76.08;95199.77;1358095;100;21147;-56
2022/11/28 04:32:39;;;;;;;58.15;32.40;;;;;;;4.01;75.99;95199.92;1405917;101;21634;-56
2022/11/28 04:35:18;;;;;;;77.55;44.42;;;;;;;4.12;75.63;95195.23;1407972;101;21731;-55
2022/11/28 04:37:47;;;;;;;50.83;31.70;;;;;;;4.20;75.37;95202.19;1501277;94;21065;-57
2022/11/28 04:40:13;;;;;;;44.50;27.50;;;;;;;4.27;74.94;95200.79;1484060;95;21329;-63
2022/11/28 04:42:45;;;;;;;37.95;24.45;;;;;;;4.25;74.54;95201.02;1488631;94;21234;-59
2022/11/28 04:45:29;;;;;;;41.18;25.30;;;;;;;4.18;74.72;95203.17;1476077;96;21163;-49
2022/11/28 04:47:57;;;;;;;39.10;23.30;;;;;;;4.15;74.70;95199.88;1458977;97;21601;-60
2022/11/28 04:50:27;;;;;;;39.53;22.60;;;;;;;4.05;74.75;95200.69;1474727;95;21151;-61
2022/11/28 04:53:02;;;;;;;39.67;25.12;;;;;;;3.99;75.00;95196.83;1468190;95;21327;-63
2022/11/28 04:55:54;;;;;;;42.55;24.27;;;;;;;3.90;74.75;95192.97;1469668;96;21052;-62
2022/11/28 04:58:25;;;;;;;41.33;26.33;;;;;;;3.73;75.25;95202.71;1462791;97;21553;-61
2022/11/28 05:00:53;;;;;;;46.15;27.77;;;;;;;3.68;75.85;95201.77;1441573;97;21122;-62
2022/11/28 05:03:20;;;;;;;46.48;27.17;;;;;;;3.74;75.77;95198.06;1431147;100;21169;-61
2022/11/28 05:05:49;;;;;;;69.40;40.65;;;;;;;3.67;75.49;95198.09;1431019;100;21297;-61
2022/11/28 05:08:17;;;;;;;115.10;57.95;;;;;;;3.60;76.12;95202.95;1431200;100;21123;-62
2022/11/28 05:10:44;;;;;;;126.30;65.05;;;;;;;3.70;76.59;95205.46;1434817;97;21100;-62
2022/11/28 05:13:11;;;;;;;110.22;59.53;;;;;;;3.84;76.73;95208.92;1431280;100;21559;-63
2022/11/28 05:15:37;;;;;;;69.55;38.33;;;;;;;3.93;75.98;95198.98;1435071;98;21624;-61
2022/11/28 05:18:05;;;;;;;85.92;46.45;;;;;;;3.88;75.51;95201.52;1438918;97;21329;-62
2022/11/28 05:20:32;;;;;;;82.05;44.38;;;;;;;3.84;75.63;95206.20;1433585;99;21116;-62
2022/11/28 05:22:59;;;;;;;81.50;47.20;;;;;;;3.78;75.46;95203.70;1499806;94;21125;-62
2022/11/28 05:25:25;;;;;;;82.50;46.13;;;;;;;3.71;75.44;95202.33;1440237;97;21209;-62
2022/11/28 05:27:52;;;;;;;67.12;39.00;;;;;;;3.68;75.68;95203.12;1548001;90;21103;-60
2022/11/28 05:30:19;;;;;;;63.35;37.70;;;;;;;3.70;76.07;95203.50;1539447;91;21337;-62
2022/11/28 05:32:46;;;;;;;63.02;37.93;;;;;;;3.75;76.02;95203.12;1564819;90;21117;-62
2022/11/28 05:35:13;;;;;;;64.12;38.10;;;;;;;3.79;75.92;95198.44;1577553;88;21142;-61
2022/11/28 05:37:40;;;;;;;55.40;34.63;;;;;;;3.81;75.56;95200.75;1591321;88;21158;-62
2022/11/28 05:40:08;;;;;;;50.25;30.95;;;;;;;3.79;75.39;95202.52;1576838;89;21057;-62
2022/11/28 05:42:36;;;;;;;39.03;23.75;;;;;;;3.78;75.40;95200.19;1552854;88;21750;-61
2022/11/28 05:45:03;;;;;;;36.48;22.80;;;;;;;3.76;75.44;95201.95;1589659;89;21151;-50
2022/11/28 05:47:31;;;;;;;35.23;23.32;;;;;;;3.75;75.45;95200.41;1606386;88;21599;-51
2022/11/28 05:49:58;;;;;;;35.92;24.72;;;;;;;3.76;75.56;95206.03;1617373;88;21085;-58
2022/11/28 05:52:28;;;;;;;40.08;23.45;;;;;;;3.72;75.51;95205.84;1627805;86;21593;-48
2022/11/28 05:54:55;;;;;;;41.55;24.60;;;;;;;3.62;75.55;95207.42;1613665;87;21223;-54
2022/11/28 05:57:21;;;;;;;51.28;26.33;;;;;;;3.55;77.25;95202.56;1640559;84;21171;-62
2022/11/28 05:59:48;;;;;;;43.23;25.17;;;;;;;3.60;79.09;95201.59;1693892;84;21108;-56
2022/11/28 06:02:15;;;;;;;36.53;23.02;;;;;;;3.68;81.16;95199.64;1697038;84;21066;-64
2022/11/28 06:04:42;;;;;;;27.25;17.85;;;;;;;3.65;80.56;95207.23;1711010;82;20975;-55
2022/11/28 06:07:09;;;;;;;33.45;22.20;;;;;;;3.55;79.45;95203.33;1712546;83;21343;-52
2022/11/28 06:09:36;;;;;;;34.08;21.60;;;;;;;3.42;78.95;95206.09;1662106;84;21539;-55
2022/11/28 06:12:03;;;;;;;47.13;32.23;;;;;;;3.33;79.14;95200.26;1690779;83;21467;-55
2022/11/28 06:14:31;;;;;;;51.85;32.63;;;;;;;3.37;79.37;95199.09;1723547;82;21094;-54
2022/11/28 06:16:57;;;;;;;69.82;41.95;;;;;;;3.48;79.34;95202.59;1689986;82;21555;-53
2022/11/28 06:19:25;;;;;;;49.55;29.25;;;;;;;3.62;78.99;95206.05;1745836;80;21327;-53
2022/11/28 06:21:52;;;;;;;39.78;22.65;;;;;;;3.68;78.05;95207.20;1756024;79;21033;-55
2022/11/28 06:24:19;;;;;;;27.25;17.55;;;;;;;3.57;77.27;95203.74;1757875;79;21648;-55
2022/11/28 06:26:46;;;;;;;26.25;16.97;;;;;;;3.47;77.00;95206.48;1751796;79;21032;-55
2022/11/28 06:29:13;;;;;;;45.58;24.67;;;;;;;3.46;76.73;95205.50;1766305;79;21009;-54
2022/11/28 06:31:39;;;;;;;33.28;18.77;;;;;;;3.41;76.07;95207.26;1774868;79;21293;-57
2022/11/28 06:34:06;;;;;;;37.80;23.40;;;;;;;3.23;76.04;95213.29;1753697;79;21029;-56
2022/11/28 06:36:34;;;;;;;29.82;17.92;;;;;;;3.14;76.20;95221.03;1800697;79;21048;-55
2022/11/28 06:39:01;;;;;;;31.60;20.55;;;;;;;3.05;75.79;95211.91;1780583;79;21494;-55
2022/11/28 06:41:27;;;;;;;25.72;16.25;;;;;;;2.91;75.89;95215.20;1769042;79;21046;-55
2022/11/28 06:43:55;;;;;;;18.55;13.15;;;;;;;2.78;75.98;95215.37;1764424;79;21220;-56
2022/11/28 06:46:22;;;;;;;25.62;17.32;;;;;;;2.69;76.13;95210.31;1773619;80;21080;-57
2022/11/28 06:48:56;;;;;;;63.10;32.60;;;;;;;2.62;76.33;95212.23;1765490;79;21046;-56
2022/11/28 06:51:25;;;;;;;37.45;22.60;;;;;;;2.62;76.70;95217.67;1726263;79;21033;-57
2022/11/28 06:53:51;;;;;;;49.13;25.37;;;;;;;2.63;76.92;95215.14;1728487;81;21040;-57
2022/11/28 06:56:30;;;;;;;33.23;16.48;;;;;;;2.64;76.71;95213.98;1719473;80;21298;-61
2022/11/28 06:58:58;;;;;;;26.27;17.37;;;;;;;2.63;76.57;95210.51;1658435;85;21318;-61
2022/11/28 07:01:43;;;;;;;;;;;;;;;;;;;;;
2022/11/28 07:04:48;;;;;;;25.55;15.90;;;;;;;2.70;76.72;95209.75;1543765;92;21073;-59
2022/11/28 07:07:20;;;;;;;59.90;26.85;;;;;;;2.76;76.54;95206.84;1493551;93;21233;-57
2022/11/28 07:09:47;;;;;;;78.70;34.58;;;;;;;2.74;76.12;95213.23;1504630;92;21265;-60
2022/11/28 07:12:17;;;;;;;47.35;23.65;;;;;;;2.67;76.15;95213.23;1517070;92;21193;-54
2022/11/28 07:14:52;;;;;;;69.07;31.93;;;;;;;2.62;76.20;95205.45;1509139;93;21150;-59
2022/11/28 07:17:20;;;;;;;43.08;23.07;;;;;;;2.59;76.28;95207.02;1432103;97;21203;-56
2022/11/28 07:19:47;;;;;;;26.87;15.50;;;;;;;2.64;76.50;95209.34;1428181;98;21177;-59
2022/11/28 07:22:15;;;;;;;25.05;15.90;;;;;;;2.78;76.10;95215.37;1422916;97;21306;-59
2022/11/28 07:24:43;;;;;;;42.83;21.87;;;;;;;2.81;75.96;95208.59;1387491;101;22053;-62
2022/11/28 07:27:21;;;;;;;41.10;21.77;;;;;;;2.90;75.83;95205.50;1372683;101;21105;-58
2022/11/28 07:29:54;;;;;;;;;;;;;;;;;;;;;
2022/11/28 07:36:37;;;;;;;37.23;20.85;;;;;;;3.14;74.87;95205.52;1296105;107;21279;-61
2022/11/28 07:39:29;;;;;;;27.55;15.35;;;;;;;3.10;74.75;95197.95;1345091;104;21236;-52
2022/11/28 07:42:00;;;;;;;43.17;23.45;;;;;;;3.07;74.48;95199.30;1339619;104;21245;-57
2022/11/28 07:49:56;;;;;;;59.20;30.57;;;;;;;3.03;74.02;95202.02;1318344;107;21195;-61
2022/11/28 07:52:25;;;;;;;52.20;26.33;;;;;;;2.96;74.22;95198.52;1319232;106;21315;-54
2022/11/28 07:54:52;;;;;;;101.85;50.78;;;;;;;2.98;74.02;95201.62;1311759;106;21361;-60
2022/11/28 07:57:19;;;;;;;73.78;42.17;;;;;;;3.05;74.17;95197.56;1334520;105;21704;-53
2022/11/28 07:59:58;;;;;;;67.15;35.43;;;;;;;3.12;74.03;95196.19;1332952;105;21307;-52
2022/11/28 08:02:44;;;;;;;74.17;40.28;;;;;;;3.19;73.99;95196.97;1304966;108;21176;-55
2022/11/28 08:05:35;;;;;;;83.47;48.47;;;;;;;3.18;73.74;95194.63;1292364;108;21305;-60
2022/11/28 08:08:02;;;;;;;185.60;88.95;;;;;;;3.35;74.20;95197.35;1341111;105;21232;-60
2022/11/28 08:10:42;;;;;;;38.08;22.17;;;;;;;3.50;73.18;95196.94;1337872;103;21224;-59
2022/11/28 08:13:27;;;;;;;65.17;33.02;;;;;;;3.48;72.64;95192.28;1350160;101;21223;-60
2022/11/28 08:16:20;;;;;;;101.70;47.17;;;;;;;3.52;72.65;95199.28;1343415;103;21270;-59
2022/11/28 08:18:55;;;;;;;74.15;33.88;;;;;;;3.58;72.59;95203.94;1382380;100;21229;-56
2022/11/28 08:21:27;;;;;;;78.95;37.03;;;;;;;3.61;72.87;95199.64;1413472;99;21987;-59
2022/11/28 08:23:57;;;;;;;23.77;15.60;;;;;;;3.66;72.68;95201.38;1341210;105;21947;-54
2022/11/28 08:26:26;;;;;;;27.58;16.80;;;;;;;3.72;72.21;95203.88;1336861;105;21263;-58
2022/11/28 08:28:54;;;;;;;21.85;15.38;;;;;;;3.83;71.62;95200.56;1339845;105;21214;-58
2022/11/28 08:31:33;;;;;;;32.17;19.55;;;;;;;3.82;71.34;95202.30;1322517;105;21334;-58
2022/11/28 08:34:03;;;;;;;28.77;18.15;;;;;;;3.79;71.57;95198.44;1316324;106;21613;-56
2022/11/28 08:36:39;;;;;;;22.45;15.68;;;;;;;3.86;71.31;95201.73;1312479;106;22167;-59
2022/11/28 08:39:30;;;;;;;;;;;;;;;;;;;;;
2022/11/28 08:41:55;;;;;;;20.52;14.65;;;;;;;3.74;71.04;95197.49;1289362;109;21264;-58
2022/11/28 08:44:24;;;;;;;27.27;17.27;;;;;;;3.79;71.09;95193.00;1292131;109;21479;-54
2022/11/28 08:46:53;;;;;;;18.87;13.98;;;;;;;3.86;70.97;95191.61;1289998;109;21797;-55
2022/11/28 08:49:34;;;;;;;19.32;13.78;;;;;;;3.96;70.55;95188.66;1279981;110;21342;-60
2022/11/28 08:52:04;;;;;;;25.88;16.35;;;;;;;4.02;70.12;95190.59;1277326;109;21319;-57
2022/11/28 08:54:32;;;;;;;23.83;16.07;;;;;;;4.09;69.55;95190.55;1276826;109;21342;-60
2022/11/28 08:57:06;;;;;;;22.90;15.70;;;;;;;4.11;69.03;95180.07;1253545;112;21451;-58
2022/11/28 08:59:34;;;;;;;31.45;19.12;;;;;;;4.05;69.03;95185.72;1255280;112;21520;-57
2022/11/28 09:02:05;;;;;;;25.68;15.70;;;;;;;4.04;69.34;95184.16;1254988;112;21378;-58
2022/11/28 09:04:34;;;;;;;21.12;14.43;;;;;;;4.11;69.14;95183.36;1263602;110;21248;-58
2022/11/28 09:07:02;;;;;;;21.48;14.43;;;;;;;4.01;68.63;95186.31;1268279;110;21289;-60
2022/11/28 09:09:38;;;;;;;15.60;13.03;;;;;;;3.86;68.52;95180.72;1316483;106;21244;-60
2022/11/28 09:12:07;;;;;;;17.65;13.43;;;;;;;3.81;68.90;95168.89;1299947;108;21339;-57
2022/11/28 09:14:37;;;;;;;18.05;14.03;;;;;;;3.85;68.69;95171.02;1281677;110;21432;-59
2022/11/28 09:17:05;;;;;;;20.80;16.02;;;;;;;3.79;68.58;95165.00;1268636;110;21288;-55
2022/11/28 09:19:40;;;;;;;22.75;15.98;;;;;;;3.73;69.04;95164.62;1274245;111;21212;-56
2022/11/28 09:22:10;;;;;;;20.15;15.88;;;;;;;3.83;69.20;95166.55;1307297;107;21438;-55
2022/11/28 09:24:38;;;;;;;20.55;15.25;;;;;;;3.89;68.48;95160.88;1298758;107;21267;-57
2022/11/28 09:27:26;;;;;;;22.85;16.02;;;;;;;3.85;68.38;95161.48;1339356;103;21196;-55
2022/11/28 09:30:01;;;;;;;24.95;17.00;;;;;;;3.77;68.45;95157.25;1358677;102;21815;-55
2022/11/28 09:32:30;;;;;;;24.75;16.62;;;;;;;3.70;68.61;95151.05;1368540;101;21219;-56
2022/11/28 09:35:01;;;;;;;20.60;14.13;;;;;;;3.68;69.16;95149.31;1417436;97;21387;-60
2022/11/28 09:37:36;;;;;;;23.60;17.10;;;;;;;3.75;68.46;95154.72;1401555;99;21177;-53
2022/11/28 09:40:20;;;;;;;21.70;14.28;;;;;;;3.63;68.58;95146.41;1415314;98;21164;-58
2022/11/28 09:45:52;;;;;;;22.60;15.88;;;;;;;3.58;68.44;95140.58;1395172;100;21291;-61
2022/11/28 09:48:32;;;;;;;33.67;18.48;;;;;;;3.63;68.89;95132.80;1390149;99;21359;-62
2022/11/28 09:54:28;;;;;;;27.87;17.57;;;;;;;3.78;69.04;95132.95;1330405;105;21851;-62
2022/11/28 09:56:59;;;;;;;33.02;16.80;;;;;;;3.86;68.72;95124.94;1329647;105;21480;-56
2022/11/28 09:59:29;;;;;;;24.77;17.60;;;;;;;3.93;68.85;95124.14;1316697;104;21763;-55
2022/11/28 10:02:38;;;;;;;22.98;16.20;;;;;;;3.96;68.57;95124.13;1323847;105;21597;-56
2022/11/28 10:05:34;;;;;;;26.33;18.15;;;;;;;3.99;68.43;95126.06;1322662;106;21683;-57
2022/11/28 10:08:31;;;;;;;29.87;18.87;;;;;;;4.12;68.36;95120.94;1325050;105;21486;-57
2022/11/28 10:12:47;;;;;;;38.42;19.95;;;;;;;4.40;68.32;95117.47;1329970;105;21710;-60
2022/11/28 10:15:34;;;;;;;22.42;15.10;;;;;;;4.89;67.16;95116.34;1311150;107;21216;-56
2022/11/28 10:18:24;;;;;;;25.45;17.60;;;;;;;5.39;65.85;95116.89;1306987;107;21357;-53
2022/11/28 10:20:58;;;;;;;24.07;17.30;;;;;;;5.58;64.57;95117.06;1318337;105;21273;-59
2022/11/28 10:23:42;;;;;;;30.65;17.27;;;;;;;5.66;64.02;95104.12;1297508;106;22427;-58
2022/11/28 10:26:37;;;;;;;26.62;18.82;;;;;;;5.75;63.29;95107.91;1302993;108;21534;-57
2022/11/28 10:29:13;;;;;;;20.02;15.10;;;;;;;5.86;63.25;95110.55;1305369;107;21311;-59
2022/11/28 10:31:42;;;;;;;20.72;14.53;;;;;;;6.00;62.52;95104.92;1329929;103;21522;-60
2022/11/28 10:34:51;;;;;;;24.52;16.23;;;;;;;6.02;62.10;95109.38;1359531;103;21669;-58
2022/11/28 10:37:31;;;;;;;51.58;31.17;;;;;;;5.98;62.00;95108.66;1310034;106;21293;-58
2022/11/28 10:40:36;;;;;;;39.23;26.97;;;;;;;6.05;62.16;95101.73;1327700;105;21151;-58
2022/11/28 10:43:46;;;;;;;54.53;30.65;;;;;;;6.10;61.93;95102.05;1348409;102;21265;-59
2022/11/28 10:46:44;;;;;;;44.73;26.05;;;;;;;6.07;61.97;95096.62;1366160;102;21932;-58
2022/11/28 10:49:34;;;;;;;35.20;24.77;;;;;;;6.18;62.28;95097.28;1355879;102;22253;-57
2022/11/28 10:52:23;;;;;;;24.25;18.37;;;;;;;6.37;62.21;95095.27;1372883;102;21215;-55
2022/11/28 12:38:24;;;;;;;28.60;21.75;;;;;;;11.27;45.69;95059.41;1817666;77;26242;-59
2022/11/28 12:41:03;;;;;;;22.82;14.58;;;;;;;10.47;46.89;95071.59;1778341;78;21089;-60
2022/11/28 12:44:04;;;;;;;22.20;13.55;;;;;;;9.57;48.98;95073.52;1659140;84;21294;-57
2022/11/28 12:46:49;;;;;;;28.07;14.95;;;;;;;8.89;50.42;95074.27;1638500;86;21063;-56
2022/11/28 12:49:39;;;;;;;28.83;16.82;;;;;;;8.12;52.14;95075.98;1658153;85;21156;-62
2022/11/28 12:52:15;;;;;;;46.53;31.75;;;;;;;7.55;53.72;95076.89;1637882;84;21154;-56
2022/11/28 12:55:13;;;;;;;31.55;18.82;;;;;;;7.13;55.17;95077.66;1646176;85;21067;-58
2022/11/28 12:58:00;;;;;;;26.52;18.77;;;;;;;6.75;56.36;95077.52;1637041;85;21262;-55
2022/11/28 13:00:27;;;;;;;32.40;17.70;;;;;;;6.36;57.60;95073.23;1623145;86;21146;-55
2022/11/28 13:03:29;;;;;;;71.92;39.45;;;;;;;6.07;58.97;95075.57;1594631;87;21724;-59
2022/11/28 13:06:23;;;;;;;88.35;37.40;;;;;;;5.88;59.60;95074.05;1570249;87;21112;-58
2022/11/28 13:09:24;;;;;;;34.98;21.97;;;;;;;5.60;60.45;95078.47;1597886;87;21151;-54
2022/11/28 13:12:00;;;;;;;63.13;35.10;;;;;;;5.35;61.25;95071.12;1590565;89;21194;-51
2022/11/28 13:14:55;;;;;;;42.20;25.57;;;;;;;5.07;62.32;95076.87;1575814;89;21157;-55
2022/11/28 13:17:49;;;;;;;57.98;27.55;;;;;;;4.90;63.22;95075.07;1582587;87;21116;-54
2022/11/28 13:20:38;;;;;;;50.28;24.40;;;;;;;4.77;64.01;95077.33;1551263;91;21167;-54
2022/11/28 13:23:34;;;;;;;47.95;24.27;;;;;;;4.67;64.50;95073.52;1554361;90;21166;-57
2022/11/28 13:29:36;;;;;;;42.53;22.50;;;;;;;4.55;65.28;95073.20;1541013;90;21785;-59
2022/11/28 13:32:23;;;;;;;32.25;20.88;;;;;;;4.52;65.59;95078.88;1531094;90;21744;-58
2022/11/28 13:34:50;;;;;;;60.67;34.25;;;;;;;4.52;65.87;95078.88;1534492;91;21305;-56
2022/11/28 13:37:43;;;;;;;51.08;28.23;;;;;;;4.51;66.26;95077.33;1507955;92;21168;-50
2022/11/28 13:40:48;;;;;;;46.90;26.85;;;;;;;4.49;66.56;95085.13;1530502;90;21201;-52
2022/11/28 13:43:45;;;;;;;40.50;25.20;;;;;;;4.40;66.79;95086.15;1497529;93;21196;-48
2022/11/28 13:46:18;;;;;;;63.60;33.70;;;;;;;4.09;67.24;95083.03;1495028;93;21261;-48
2022/11/28 13:48:52;;;;;;;49.77;30.15;;;;;;;4.09;67.24;95083.03;1503562;92;21134;-56
2022/11/28 13:51:24;;;;;;;47.67;23.75;;;;;;;3.92;67.54;95077.12;1528072;90;21195;-57
2022/11/28 13:54:16;;;;;;;37.67;23.52;;;;;;;3.80;68.12;95078.91;1581558;88;21810;-56
2022/11/28 13:57:22;;;;;;;51.02;30.45;;;;;;;3.79;68.71;95079.30;1558201;89;21057;-55
2022/11/28 13:59:57;;;;;;;48.02;27.48;;;;;;;3.75;68.85;95083.41;1598686;87;21628;-53
2022/11/28 14:02:43;;;;;;;50.03;31.42;;;;;;;3.66;69.45;95080.33;1614442;87;21057;-56
2022/11/28 14:05:36;;;;;;;46.70;29.10;;;;;;;3.65;70.03;95084.81;1580700;87;21185;-62
2022/11/28 14:08:39;;;;;;;41.88;28.12;;;;;;;3.70;70.32;95082.44;1471688;94;26703;-53
2022/11/28 14:11:22;;;;;;;73.60;41.85;;;;;;;3.80;70.23;95090.37;1490582;93;21171;-60
2022/11/28 14:14:18;;;;;;;54.38;32.70;;;;;;;3.80;70.06;95087.08;1486978;94;21696;-58
2022/11/28 14:17:27;;;;;;;59.20;33.73;;;;;;;3.73;70.12;95084.36;1468996;94;21635;-55
2022/11/28 14:20:29;;;;;;;74.82;40.40;;;;;;;3.59;70.33;95094.53;1484297;93;21261;-54
2022/11/28 14:23:29;;;;;;;79.35;42.95;;;;;;;3.49;70.88;95083.13;1521981;92;21200;-58
2022/11/28 14:25:57;;;;;;;76.70;40.17;;;;;;;3.51;71.34;95085.62;1514861;92;21043;-54
2022/11/28 14:28:29;;;;;;;120.80;56.02;;;;;;;3.54;71.41;95085.43;1523856;91;21232;-55
2022/11/28 14:31:06;;;;;;;107.37;55.25;;;;;;;3.53;71.47;95087.95;1545860;89;21337;-55
2022/11/28 14:33:38;;;;;;;164.97;77.15;;;;;;;3.53;71.55;95080.56;1518262;93;21121;-63
2022/11/28 14:36:32;;;;;;;188.80;87.53;;;;;;;3.49;71.51;95078.44;1523213;91;22275;-57
2022/11/28 14:39:18;;;;;;;148.32;72.97;;;;;;;3.43;71.73;95077.12;1593749;85;21104;-58
2022/11/28 14:42:09;;;;;;;124.50;59.23;;;;;;;3.41;72.11;95080.81;1653573;84;21100;-59
2022/11/28 14:44:57;;;;;;;164.97;81.82;;;;;;;3.48;72.23;95076.89;1665930;84;21650;-56
2022/11/28 14:47:45;;;;;;;;;;;;;;;;;;;;;
2022/11/28 14:50:12;;;;;;;86.40;42.67;;;;;;;3.48;72.49;95081.57;1658552;85;21281;-58
2022/11/28 14:52:57;;;;;;;84.37;46.33;;;;;;;3.46;72.63;95081.16;1645308;84;21167;-62
2022/11/28 14:55:22;;;;;;;83.60;43.45;;;;;;;3.48;72.45;95083.50;1506869;92;21209;-58
2022/11/28 14:57:59;;;;;;;96.80;48.10;;;;;;;3.42;72.65;95080.41;1519485;91;21706;-58
2022/11/28 15:00:33;;;;;;;62.35;34.90;;;;;;;3.43;72.79;95082.55;1515289;92;21758;-59
2022/11/28 15:03:16;;;;;;;79.55;41.88;;;;;;;3.42;72.80;95085.84;1520228;92;21237;-49
2022/11/28 15:08:45;;;;;;;44.93;27.65;;;;;;;3.49;73.15;95089.32;1462588;95;21132;-52
2022/11/28 15:11:40;;;;;;;41.35;23.70;;;;;;;3.53;73.09;95087.36;1445294;97;21642;-59
2022/11/28 15:14:22;;;;;;;34.70;21.02;;;;;;;3.51;73.09;95095.14;1387771;100;21136;-59
2022/11/28 15:16:53;;;;;;;37.20;23.55;;;;;;;3.42;73.18;95094.60;1393504;101;21328;-58
2022/11/28 15:19:43;;;;;;;53.35;29.57;;;;;;;3.37;73.44;95101.20;1386837;101;21216;-59
2022/11/28 15:22:40;;;;;;;52.75;28.55;;;;;;;3.37;73.82;95099.85;1391121;100;21212;-59
2022/11/28 15:25:28;;;;;;;41.68;25.23;;;;;;;3.48;73.96;95099.25;1425541;99;21641;-59
2022/11/28 15:27:56;;;;;;;39.23;25.23;;;;;;;3.49;73.91;95100.80;1416803;100;21170;-58
2022/11/28 15:32:58;;;;;;;39.80;24.82;;;;;;;3.44;74.01;95100.42;1421016;98;21176;-56
2022/11/28 16:06:11;;;;;;;45.20;29.75;;;;;;;2.59;76.64;95095.67;1826826;77;26168;-57
2022/11/28 16:08:41;;;;;;;39.40;27.98;;;;;;;2.52;76.87;95101.68;1769867;80;21037;-58
2022/11/28 16:11:08;;;;;;;49.10;31.42;;;;;;;2.53;77.15;95107.30;1693546;84;22052;-58
2022/11/28 16:13:37;;;;;;;53.20;35.08;;;;;;;2.57;77.35;95111.58;1685841;84;20990;-58
2022/11/28 16:16:15;;;;;;;59.55;34.30;;;;;;;2.59;77.65;95107.10;1677092;83;21102;-58
2022/11/28 16:18:50;;;;;;;84.45;44.48;;;;;;;2.64;77.59;95106.71;1674797;84;21175;-59
2022/11/28 16:21:16;;;;;;;51.30;31.33;;;;;;;2.66;77.52;95107.13;1573525;89;21182;-57
2022/11/28 16:23:43;;;;;;;65.65;38.15;;;;;;;2.65;77.50;95113.13;1545013;91;21250;-56
2022/11/28 16:26:32;;;;;;;45.23;28.50;;;;;;;2.64;77.67;95111.58;1542362;92;21062;-57
2022/11/28 16:29:10;;;;;;;36.13;22.85;;;;;;;2.62;77.65;95114.47;1541464;92;21075;-58
2022/11/28 16:31:37;;;;;;;46.85;28.85;;;;;;;2.63;77.88;95114.66;1557936;91;21056;-58
2022/11/28 16:34:05;;;;;;;59.77;31.10;;;;;;;2.70;77.87;95114.09;1528602;93;21015;-57
2022/11/28 16:36:35;;;;;;;63.13;26.77;;;;;;;2.76;77.90;95111.77;1532410;92;22222;-57
2022/11/28 16:39:10;;;;;;;54.73;24.52;;;;;;;2.89;77.96;95112.94;1534534;92;21149;-55
2022/11/28 16:41:39;;;;;;;50.73;29.57;;;;;;;3.06;77.70;95117.58;1528547;92;21170;-57
2022/11/28 16:44:12;;;;;;;40.88;25.85;;;;;;;3.19;77.21;95115.98;1527191;93;21079;-57
2022/11/28 16:46:42;;;;;;;;;;;;;;;3.29;76.82;95116.57;1530548;93;21108;-57
2022/11/28 16:49:31;;;;;;;45.03;24.15;;;;;;;3.33;76.47;95107.81;1562999;90;21318;-57
2022/11/28 16:52:23;;;;;;;28.87;18.87;;;;;;;3.36;76.17;95119.27;1442188;99;21099;-56
2022/11/28 16:54:54;;;;;;;29.77;20.60;;;;;;;3.35;75.96;95114.42;1466352;97;21480;-59
2022/11/28 16:57:21;;;;;;;38.10;24.80;;;;;;;3.30;75.67;95115.40;1444010;98;21140;-58
2022/11/28 16:59:51;;;;;;;35.85;23.05;;;;;;;3.28;75.68;95115.78;1464581;97;21146;-59
2022/11/28 17:02:23;;;;;;;32.70;23.12;;;;;;;3.25;75.22;95116.56;1444215;98;21649;-59
2022/11/28 17:04:52;;;;;;;30.88;20.37;;;;;;;3.27;75.17;95114.23;1410519;100;21039;-57